Time;durP1;ratioP1;P1;durP2;ratioP2;P2;SDS_P1;SDS_P2;PMS_P1;PMS_P2;Temp;Humidity;BMP_temperature;BMP_pressure;BME280_temperature;BME280_humidity;BME280_pressure;Samples;Min_cycle;Max_cycle;Signal;HPM_P1;HPM_P2
2023/06/22 00:01:49;;;;;;;19.38;13.43;;;;;;;21.59;100.00;101645.53;5053145;28;20506;-79
2023/06/22 00:04:15;;;;;;;14.68;13.18;;;;;;;21.61;100.00;101658.44;5035287;28;20025;-78
2023/06/22 00:06:40;;;;;;;15.43;13.70;;;;;;;21.36;100.00;101653.53;5035346;28;20032;-79
2023/06/22 00:09:06;;;;;;;15.95;13.63;;;;;;;21.48;100.00;101661.59;5052619;28;20032;-79
2023/06/22 00:11:33;;;;;;;14.98;13.35;;;;;;;21.61;100.00;101690.31;5052596;28;20116;-78
2023/06/22 00:13:59;;;;;;;16.45;13.10;;;;;;;21.61;100.00;101702.44;5051668;28;20016;-79
2023/06/22 00:16:25;;;;;;;14.15;12.75;;;;;;;21.23;100.00;101704.16;5052612;28;20025;-76
2023/06/22 00:18:50;;;;;;;16.55;13.35;;;;;;;21.34;100.00;101697.59;5052012;28;20028;-80
2023/06/22 00:21:16;;;;;;;15.32;13.27;;;;;;;21.11;100.00;101647.78;5052225;28;20153;-76
2023/06/22 00:23:41;;;;;;;14.50;12.88;;;;;;;21.35;100.00;101721.75;5052432;28;20029;-77
2023/06/22 00:26:07;;;;;;;15.35;13.82;;;;;;;21.64;100.00;101734.22;5052161;28;20029;-77
2023/06/22 00:28:32;;;;;;;14.15;12.75;;;;;;;21.42;100.00;101728.31;5051145;28;20036;-76
2023/06/22 00:30:58;;;;;;;17.85;13.73;;;;;;;21.42;100.00;101741.25;5034640;28;20085;-77
2023/06/22 00:33:23;;;;;;;14.07;12.57;;;;;;;21.47;100.00;101736.72;5051230;28;20088;-80
2023/06/22 00:35:52;;;;;;;15.15;12.73;;;;;;;20.76;100.00;101638.13;5051161;28;20120;-76
2023/06/22 00:38:18;;;;;;;12.93;11.63;;;;;;;21.05;100.00;101690.31;5035170;28;20391;-76
2023/06/22 00:40:43;;;;;;;13.68;12.27;;;;;;;21.04;100.00;101739.50;5034179;28;20045;-78
2023/06/22 00:43:09;;;;;;;12.85;11.32;;;;;;;21.06;100.00;101735.09;5052727;28;20058;-76
2023/06/22 00:45:34;;;;;;;13.40;11.63;;;;;;;21.22;100.00;101725.75;5051373;28;20031;-76
2023/06/22 00:48:01;;;;;;;12.68;11.20;;;;;;;20.96;100.00;101707.91;5050601;28;20175;-76
2023/06/22 00:50:33;;;;;;;13.05;11.40;;;;;;;20.65;100.00;101670.44;5050811;28;20040;-77
2023/06/22 00:53:00;;;;;;;14.35;12.65;;;;;;;21.10;100.00;101734.06;5052537;28;20025;-79
2023/06/22 00:55:26;;;;;;;13.00;11.60;;;;;;;20.97;100.00;101751.84;5034364;28;20144;-77
2023/06/22 00:57:56;;;;;;;13.32;11.98;;;;;;;20.36;100.00;101655.31;5050982;28;20032;-78
2023/06/22 01:00:24;;;;;;;13.20;11.80;;;;;;;20.37;100.00;101692.31;5049857;28;20025;-77
2023/06/22 01:02:51;;;;;;;12.57;10.88;;;;;;;20.78;100.00;101737.16;5051596;28;20032;-76
2023/06/22 01:05:18;;;;;;;12.70;11.10;;;;;;;20.74;100.00;101744.19;5052337;28;20024;-77
2023/06/22 01:07:54;;;;;;;12.68;11.38;;;;;;;21.05;100.00;101780.84;5050687;28;20033;-76
2023/06/22 01:10:30;;;;;;;13.30;12.00;;;;;;;20.60;100.00;101773.19;5051649;28;20031;-76
2023/06/22 01:13:10;;;;;;;13.30;10.73;;;;;;;20.55;100.00;101712.25;5050760;28;20423;-76
2023/06/22 01:15:56;;;;;;;12.90;11.50;;;;;;;20.53;100.00;101706.31;5050453;28;20024;-76
2023/06/22 01:18:25;;;;;;;13.77;11.20;;;;;;;20.76;100.00;101777.75;5050870;28;20502;-76
2023/06/22 01:20:57;;;;;;;13.73;10.95;;;;;;;20.98;100.00;101774.19;5050390;28;20033;-77
2023/06/22 01:23:35;;;;;;;12.50;10.90;;;;;;;21.16;100.00;101775.19;5051685;28;20078;-76
2023/06/22 01:26:18;;;;;;;12.68;11.38;;;;;;;21.29;100.00;101779.78;5033811;28;20027;-76
2023/06/22 01:28:50;;;;;;;14.65;11.65;;;;;;;20.67;100.00;101716.91;5051681;28;20139;-76
2023/06/22 01:31:19;;;;;;;12.95;11.20;;;;;;;20.92;100.00;101771.06;5050116;28;20114;-76
2023/06/22 01:33:49;;;;;;;13.02;11.68;;;;;;;20.79;100.00;101786.22;5051476;28;20025;-76
2023/06/22 01:36:17;;;;;;;12.90;11.63;;;;;;;20.31;100.00;101672.75;5051893;28;20479;-75
2023/06/22 01:38:44;;;;;;;11.93;10.73;;;;;;;20.69;100.00;101733.22;5051583;28;20017;-76
2023/06/22 01:41:10;;;;;;;13.77;11.40;;;;;;;20.67;100.00;101735.00;5049980;28;20071;-75
2023/06/22 01:43:36;;;;;;;15.80;12.93;;;;;;;21.13;100.00;101767.56;5051538;28;20056;-76
2023/06/22 01:46:03;;;;;;;14.32;12.50;;;;;;;21.00;100.00;101785.31;5051890;28;20025;-76
2023/06/22 01:48:29;;;;;;;13.55;12.15;;;;;;;20.99;100.00;101770.72;5051401;28;20017;-77
2023/06/22 01:50:55;;;;;;;12.68;11.30;;;;;;;20.80;100.00;101706.91;5050419;28;20040;-75
2023/06/22 01:53:24;;;;;;;13.55;12.25;;;;;;;20.60;100.00;101681.91;5051569;28;20090;-76
2023/06/22 01:55:49;;;;;;;14.43;11.93;;;;;;;20.93;100.00;101739.09;5050707;28;20116;-75
2023/06/22 01:58:15;;;;;;;14.43;11.65;;;;;;;21.25;100.00;101790.34;5032638;28;20121;-76
2023/06/22 02:00:48;;;;;;;13.50;11.13;;;;;;;20.97;100.00;101748.41;5050164;28;20446;-76
2023/06/22 02:03:19;;;;;;;12.98;11.68;;;;;;;21.29;100.00;101791.91;5049850;28;20097;-77
2023/06/22 02:06:05;;;;;;;;;;;;;;;21.15;100.00;101802.00;5033762;28;20024;-76
2023/06/22 02:08:37;;;;;;;14.23;12.73;;;;;;;20.83;100.00;101691.25;5032821;28;19913;-77
2023/06/22 02:11:03;;;;;;;13.32;11.93;;;;;;;20.79;100.00;101716.41;5033418;28;20526;-76
2023/06/22 02:13:30;;;;;;;15.13;11.82;;;;;;;21.37;100.00;101800.97;5054698;28;20063;-76
2023/06/22 02:15:56;;;;;;;12.88;11.48;;;;;;;21.16;100.00;101747.56;5037414;28;20017;-76
2023/06/22 02:18:21;;;;;;;14.23;12.38;;;;;;;21.18;100.00;101788.91;5055208;28;20028;-75
2023/06/22 02:20:47;;;;;;;14.05;11.63;;;;;;;21.45;100.00;101796.31;5036923;28;20115;-76
2023/06/22 02:23:12;;;;;;;12.73;11.35;;;;;;;21.58;100.00;101783.69;5055069;28;20017;-77
2023/06/22 02:25:38;;;;;;;13.52;11.40;;;;;;;21.30;100.00;101784.06;5055075;28;20029;-77
2023/06/22 02:28:04;;;;;;;15.05;11.38;;;;;;;21.35;100.00;101794.22;5036598;28;20029;-75
2023/06/22 02:30:29;;;;;;;13.25;11.30;;;;;;;21.03;100.00;101737.81;5052706;28;20039;-76
2023/06/22 02:32:58;;;;;;;14.32;12.27;;;;;;;20.69;100.00;101697.00;5054570;28;20017;-77
2023/06/22 02:35:31;;;;;;;15.50;10.77;;;;;;;21.26;100.00;101766.97;5053000;28;20025;-75
2023/06/22 02:38:00;;;;;;;12.98;11.57;;;;;;;21.35;100.00;101791.63;5036956;28;20025;-76
2023/06/22 02:40:26;;;;;;;14.55;12.77;;;;;;;21.15;100.00;101802.00;5054818;28;20040;-76
2023/06/22 02:42:51;;;;;;;13.63;12.20;;;;;;;20.65;100.00;101742.84;5053093;28;20043;-76
2023/06/22 02:45:17;;;;;;;15.75;13.00;;;;;;;21.09;100.00;101817.78;5053726;28;20111;-76
2023/06/22 02:47:42;;;;;;;18.73;13.20;;;;;;;20.77;100.00;101757.00;5036280;28;20044;-78
2023/06/22 02:50:08;;;;;;;15.93;12.95;;;;;;;20.73;100.00;101756.28;5054190;28;20494;-76
2023/06/22 02:52:34;;;;;;;14.02;12.00;;;;;;;20.66;100.00;101752.25;5036365;28;20189;-77
2023/06/22 02:54:59;;;;;;;16.52;13.27;;;;;;;21.09;100.00;101812.59;5053552;28;20482;-77
2023/06/22 02:57:25;;;;;;;18.15;13.88;;;;;;;20.70;100.00;101813.28;5063204;28;20021;-78
2023/06/22 02:59:50;;;;;;;20.55;14.35;;;;;;;20.73;100.00;101826.09;5041616;28;20467;-76
2023/06/22 03:02:16;;;;;;;19.60;14.48;;;;;;;20.12;100.00;101754.44;5036939;28;20029;-77
2023/06/22 03:04:42;;;;;;;20.05;14.80;;;;;;;20.63;100.00;101811.88;5056205;28;20033;-79
2023/06/22 03:07:07;;;;;;;16.23;13.85;;;;;;;20.62;100.00;101835.16;5048368;28;20025;-78
2023/06/22 03:09:33;;;;;;;18.48;15.13;;;;;;;19.37;100.00;101703.94;5036187;28;20494;-79
2023/06/22 03:11:58;;;;;;;18.17;14.55;;;;;;;19.94;100.00;101799.06;5053138;28;20029;-79
2023/06/22 03:14:24;;;;;;;21.17;15.45;;;;;;;20.31;100.00;101865.69;5053295;28;20079;-78
2023/06/22 03:16:49;;;;;;;27.70;15.90;;;;;;;20.33;100.00;101859.56;5036064;28;20120;-78
2023/06/22 03:19:14;;;;;;;20.13;14.95;;;;;;;20.28;100.00;101876.16;5053732;28;20171;-79
2023/06/22 03:21:40;;;;;;;17.60;15.05;;;;;;;20.10;100.00;101850.97;5053641;28;20053;-80
2023/06/22 03:24:06;;;;;;;16.90;14.50;;;;;;;20.14;100.00;101822.41;5051500;28;20028;-76
2023/06/22 03:26:32;;;;;;;15.27;13.68;;;;;;;20.66;100.00;101888.44;5053342;28;20103;-75
2023/06/22 03:28:57;;;;;;;20.08;14.95;;;;;;;19.91;100.00;101786.25;5035653;28;20056;-77
2023/06/22 03:31:23;;;;;;;17.52;14.73;;;;;;;20.43;100.00;101897.09;5035266;28;20063;-77
2023/06/22 03:33:50;;;;;;;20.73;15.68;;;;;;;20.05;100.00;101819.28;5052216;28;20075;-76
2023/06/22 03:36:18;;;;;;;19.42;15.48;;;;;;;20.30;100.00;101874.34;5052201;28;20475;-75
2023/06/22 03:38:48;;;;;;;18.63;14.98;;;;;;;19.68;100.00;101773.34;5035374;28;20017;-80
2023/06/22 03:41:13;;;;;;;21.60;16.50;;;;;;;20.44;100.00;101861.75;5045831;28;20098;-79
2023/06/22 03:43:39;;;;;;;19.33;16.63;;;;;;;20.27;100.00;101831.38;5034129;28;20029;-77
2023/06/22 03:46:05;;;;;;;26.55;16.35;;;;;;;20.66;100.00;101878.09;5052933;28;20025;-78
2023/06/22 03:48:30;;;;;;;15.73;14.13;;;;;;;20.65;100.00;101850.56;5052002;28;20036;-79
2023/06/22 03:50:56;;;;;;;19.98;14.75;;;;;;;20.54;100.00;101863.09;5051770;28;20029;-76
2023/06/22 03:53:21;;;;;;;15.70;14.10;;;;;;;20.73;100.00;101884.72;5052940;28;20036;-78
2023/06/22 03:55:53;;;;;;;20.05;14.40;;;;;;;20.87;100.00;101886.75;5034797;28;20060;-81
2023/06/22 03:58:20;;;;;;;21.02;14.30;;;;;;;21.06;100.00;101883.41;5050742;28;20086;-77
2023/06/22 04:00:52;;;;;;;18.15;13.75;;;;;;;20.87;100.00;101794.50;5053009;28;20438;-75
2023/06/22 04:03:20;;;;;;;14.15;12.23;;;;;;;21.54;100.00;101824.41;5052680;28;20036;-77
2023/06/22 04:05:46;;;;;;;13.93;12.52;;;;;;;21.22;100.00;101774.94;5053103;28;20028;-78
2023/06/22 04:08:13;;;;;;;13.70;12.30;;;;;;;21.88;100.00;101887.69;5052478;28;20032;-78
2023/06/22 04:10:38;;;;;;;13.23;11.90;;;;;;;22.28;100.00;101910.94;5051305;28;20029;-82
2023/06/22 04:13:04;;;;;;;13.00;11.70;;;;;;;22.39;100.00;101887.94;5051717;28;20036;-78
2023/06/22 04:15:29;;;;;;;13.02;11.65;;;;;;;22.88;100.00;101879.56;5052188;28;20024;-78
2023/06/22 04:17:55;;;;;;;13.52;12.10;;;;;;;22.01;100.00;101793.81;5051686;28;20017;-84
2023/06/22 04:20:21;;;;;;;14.05;12.32;;;;;;;22.27;100.00;101831.47;5051118;28;20033;-76
2023/06/22 04:22:47;;;;;;;17.08;13.23;;;;;;;22.27;100.00;101899.72;5051129;28;20031;-80
2023/06/22 04:25:12;;;;;;;17.25;14.95;;;;;;;22.07;100.00;101894.59;5051627;28;20116;-79
2023/06/22 04:27:40;;;;;;;18.13;14.02;;;;;;;21.94;100.00;101815.75;5051049;28;20131;-79
2023/06/22 04:30:07;;;;;;;17.92;13.60;;;;;;;22.16;100.00;101811.25;5050886;28;20396;-75
2023/06/22 04:32:39;;;;;;;16.98;13.93;;;;;;;22.67;100.00;101877.16;5050516;28;20032;-76
2023/06/22 04:35:06;;;;;;;16.67;13.63;;;;;;;23.25;100.00;101888.97;5050981;28;20124;-77
2023/06/22 04:37:31;;;;;;;15.55;13.43;;;;;;;22.67;100.00;101836.50;5051343;28;20079;-77
2023/06/22 04:39:57;;;;;;;19.52;14.15;;;;;;;22.88;100.00;101855.34;5050308;28;20079;-76
2023/06/22 04:42:22;;;;;;;15.77;13.32;;;;;;;23.09;100.00;101890.66;5051160;28;20084;-79
2023/06/22 04:44:48;;;;;;;15.48;13.23;;;;;;;22.77;100.00;101835.13;5050078;28;20033;-77
2023/06/22 04:47:13;;;;;;;15.80;13.80;;;;;;;23.18;100.00;101895.38;5049895;28;20391;-74
2023/06/22 04:49:40;;;;;;;19.85;13.00;;;;;;;23.12;100.00;101869.72;5050545;28;20036;-73
2023/06/22 04:52:08;;;;;;;14.38;12.77;;;;;;;23.34;100.00;101911.06;5036626;28;20032;-78
2023/06/22 04:54:35;;;;;;;17.77;13.52;;;;;;;22.70;100.00;101835.50;5033438;28;20127;-79
2023/06/22 04:57:03;;;;;;;14.18;12.70;;;;;;;23.54;100.00;101916.94;5030683;28;20014;-79
2023/06/22 04:59:30;;;;;;;13.70;12.25;;;;;;;23.06;100.00;101867.41;5032647;28;20128;-78
2023/06/22 05:01:55;;;;;;;14.98;12.57;;;;;;;23.49;100.00;101918.94;5032446;28;20030;-78
2023/06/22 05:04:25;;;;;;;13.90;12.43;;;;;;;22.99;100.00;101809.81;5032105;28;20025;-81
2023/06/22 05:06:51;;;;;;;17.02;13.82;;;;;;;23.05;100.00;101827.69;5032649;28;20025;-79
2023/06/22 05:09:17;;;;;;;17.45;15.45;;;;;;;22.74;100.00;101837.84;5030691;28;20087;-79
2023/06/22 05:11:43;;;;;;;18.35;16.45;;;;;;;22.88;100.00;101876.94;5031100;28;20037;-79
2023/06/22 05:14:08;;;;;;;20.08;18.05;;;;;;;22.91;100.00;101873.38;5032077;28;20109;-80
2023/06/22 05:16:34;;;;;;;18.17;16.40;;;;;;;23.57;100.00;101929.75;5030475;28;20036;-79
2023/06/22 05:19:02;;;;;;;15.80;14.02;;;;;;;23.72;100.00;101923.81;5014066;28;20097;-80
2023/06/22 05:21:28;;;;;;;16.02;14.38;;;;;;;24.21;100.00;101942.91;5014451;28;20033;-80
2023/06/22 05:23:54;;;;;;;15.32;13.77;;;;;;;24.65;100.00;101949.16;5030544;28;20021;-81
2023/06/22 05:26:21;;;;;;;16.67;13.55;;;;;;;24.93;100.00;101944.13;5031292;28;20036;-80
2023/06/22 05:28:47;;;;;;;14.25;12.30;;;;;;;24.42;100.00;101870.69;5030451;28;20506;-81
2023/06/22 05:31:14;;;;;;;14.48;12.82;;;;;;;24.85;100.00;101899.47;5031300;28;20439;-80
2023/06/22 05:33:43;;;;;;;17.10;15.27;;;;;;;24.60;100.00;101903.50;5030474;28;20021;-79
2023/06/22 05:36:10;;;;;;;16.75;14.35;;;;;;;24.83;100.00;101879.66;5030999;28;20025;-81
2023/06/22 05:38:36;;;;;;;16.85;15.20;;;;;;;24.43;100.00;101865.41;5030973;28;20029;-80
2023/06/22 05:41:02;;;;;;;17.45;14.13;;;;;;;24.94;100.00;101879.88;5031157;28;20533;-75
2023/06/22 05:43:27;;;;;;;16.05;14.05;;;;;;;25.11;100.00;101868.50;5030851;28;20025;-76
2023/06/22 05:45:53;;;;;;;16.00;13.82;;;;;;;25.41;100.00;101854.56;5014769;28;20595;-75
2023/06/22 05:48:18;;;;;;;14.63;13.13;;;;;;;25.40;100.00;101862.44;5033731;28;20080;-76
2023/06/22 05:50:44;;;;;;;16.73;13.73;;;;;;;25.73;100.00;101874.28;5034790;28;20044;-77
2023/06/22 05:53:09;;;;;;;16.67;13.65;;;;;;;25.42;100.00;101856.22;5034407;28;20049;-78
2023/06/22 05:55:35;;;;;;;14.75;13.25;;;;;;;25.20;100.00;101841.91;5036397;28;20128;-79
2023/06/22 05:58:00;;;;;;;16.08;12.88;;;;;;;25.46;100.00;101795.19;5035936;28;20496;-79
2023/06/22 06:00:25;;;;;;;17.50;13.48;;;;;;;25.93;100.00;101818.31;5035906;28;20052;-78
2023/06/22 06:02:51;;;;;;;15.65;12.52;;;;;;;26.17;100.00;101816.81;5034413;28;20026;-78
2023/06/22 06:05:16;;;;;;;13.20;11.90;;;;;;;25.78;100.00;101756.69;5035946;28;20179;-77
2023/06/22 06:07:43;;;;;;;14.55;12.10;;;;;;;26.07;100.00;101754.91;5035465;28;20479;-77
2023/06/22 06:10:09;;;;;;;13.82;12.05;;;;;;;26.75;100.00;101802.63;5048917;28;20029;-78
2023/06/22 06:12:35;;;;;;;13.38;12.05;;;;;;;26.67;100.00;101743.06;5055178;28;20111;-77
2023/06/22 06:15:01;;;;;;;14.02;12.68;;;;;;;26.28;100.00;101696.13;5037924;28;20040;-76
2023/06/22 06:17:26;;;;;;;14.30;12.80;;;;;;;26.09;100.00;101721.72;5037847;28;20025;-76
2023/06/22 06:19:52;;;;;;;13.52;12.18;;;;;;;26.36;100.00;101736.44;5055387;28;20032;-77
2023/06/22 06:22:18;;;;;;;15.88;12.70;;;;;;;26.44;100.00;101715.03;5037980;28;20035;-77
2023/06/22 06:24:45;;;;;;;13.77;12.45;;;;;;;26.08;100.00;101660.91;5056157;28;20090;-77
2023/06/22 06:27:11;;;;;;;14.48;12.75;;;;;;;26.99;100.00;101701.75;5038053;28;20029;-77
2023/06/22 06:29:36;;;;;;;13.02;11.73;;;;;;;26.60;100.00;101681.78;5037886;28;20029;-79
2023/06/22 06:32:01;;;;;;;14.40;12.10;;;;;;;26.15;100.00;101588.28;5036725;28;20021;-77
2023/06/22 06:34:29;;;;;;;13.65;12.23;;;;;;;26.50;100.00;101657.22;5036869;28;20541;-77
2023/06/22 06:36:54;;;;;;;12.30;11.05;;;;;;;26.92;100.00;101562.09;5037026;28;20021;-80
2023/06/22 06:39:20;;;;;;;12.32;11.02;;;;;;;27.04;100.00;101569.88;5054986;28;20017;-77
2023/06/22 06:41:45;;;;;;;14.02;11.50;;;;;;;26.96;100.00;101493.84;5054320;28;20051;-77
2023/06/22 06:44:11;;;;;;;12.57;11.18;;;;;;;28.01;100.00;101544.44;5054712;28;20040;-78
2023/06/22 06:46:37;;;;;;;13.43;11.98;;;;;;;27.57;100.00;101411.81;5037155;28;20128;-76
2023/06/22 06:49:03;;;;;;;14.77;11.38;;;;;;;28.22;100.00;101493.94;5037213;28;20035;-80
2023/06/22 06:51:28;;;;;;;12.75;11.30;;;;;;;27.63;100.00;101442.72;5055242;28;20029;-78
2023/06/22 06:53:54;;;;;;;12.80;11.50;;;;;;;27.67;100.00;101360.50;5036977;28;20538;-77
2023/06/22 06:56:20;;;;;;;11.63;10.52;;;;;;;27.49;100.00;101384.59;5036732;28;20036;-78
2023/06/22 06:58:46;;;;;;;12.48;11.38;;;;;;;27.70;100.00;101412.53;5053269;28;20021;-78
2023/06/22 07:01:12;;;;;;;13.30;12.00;;;;;;;28.13;100.00;101336.81;5036752;28;20025;-76
2023/06/22 07:03:38;;;;;;;12.85;11.65;;;;;;;28.61;100.00;101325.06;5036657;28;20048;-76
2023/06/22 07:06:03;;;;;;;13.40;12.20;;;;;;;28.79;100.00;101315.69;5054041;28;20088;-75
2023/06/22 07:08:29;;;;;;;13.50;11.93;;;;;;;28.68;100.00;101283.50;5036769;28;20025;-77
2023/06/22 07:10:54;;;;;;;12.85;11.68;;;;;;;28.60;100.00;101276.28;5054207;28;20498;-77
2023/06/22 07:13:20;;;;;;;10.93;9.93;;;;;;;28.76;100.00;101241.78;5036634;28;20464;-78
2023/06/22 07:15:45;;;;;;;11.32;10.32;;;;;;;28.50;100.00;101219.53;5036947;28;20025;-77
2023/06/22 07:18:11;;;;;;;8.77;7.97;;;;;;;29.00;100.00;101145.38;5036323;28;20550;-76
2023/06/22 07:20:36;;;;;;;10.88;8.45;;;;;;;28.27;100.00;100954.47;5053940;28;20028;-79
2023/06/22 07:23:03;;;;;;;9.27;8.30;;;;;;;28.88;100.00;100764.84;5054085;28;20032;-78
2023/06/22 07:25:28;;;;;;;9.65;8.02;;;;;;;29.18;100.00;100495.78;5055866;28;20028;-76
2023/06/22 07:28:03;;;;;;;10.18;9.25;;;;;;;28.96;100.00;100034.22;5067969;28;20102;-78
2023/06/22 07:30:29;;;;;;;10.00;9.10;;;;;;;29.24;100.00;99999.97;5067897;28;20025;-81
2023/06/22 07:32:54;;;;;;;14.40;8.93;;;;;;;29.19;100.00;99619.75;5055573;28;20095;-78
2023/06/22 07:35:20;;;;;;;9.98;9.07;;;;;;;29.31;100.00;99281.25;5055030;28;20437;-79
2023/06/22 07:37:45;;;;;;;9.95;9.07;;;;;;;28.89;100.00;99226.78;5036585;28;20024;-78
2023/06/22 07:40:11;;;;;;;10.05;9.07;;;;;;;29.32;100.00;99195.56;5036573;28;20123;-78
2023/06/22 07:42:37;;;;;;;10.27;9.27;;;;;;;29.45;100.00;99111.91;5054614;28;20091;-78
2023/06/22 07:45:28;;;;;;;10.95;8.52;;;;;;;30.08;100.00;99084.94;5036429;28;20462;-78
2023/06/22 07:47:53;;;;;;;15.38;9.60;;;;;;;29.02;100.00;98749.59;5052554;28;20116;-77
2023/06/22 07:50:18;;;;;;;15.32;9.10;;;;;;;29.35;100.00;98503.66;5052132;28;20096;-81
2023/06/22 07:52:44;;;;;;;10.88;8.98;;;;;;;28.78;100.00;98339.97;5052828;28;20025;-78
2023/06/22 07:55:09;;;;;;;10.00;9.00;;;;;;;30.07;100.00;97274.81;5053728;28;20028;-78
2023/06/22 07:57:36;;;;;;;11.40;9.30;;;;;;;30.50;100.00;97419.44;5052256;28;20025;-79
2023/06/22 08:00:24;;;;;;;11.65;8.77;;;;;;;30.02;100.00;97583.25;5035382;28;20037;-78
2023/06/22 08:02:48;;;;;;;9.80;8.93;;;;;;;30.68;100.00;97385.16;5052732;28;20182;-79
2023/06/22 08:05:15;;;;;;;16.80;10.68;;;;;;;30.10;100.00;97134.63;5052213;28;20483;-80
2023/06/22 08:07:42;;;;;;;23.60;11.60;;;;;;;29.99;100.00;97005.22;5052151;28;20021;-80
2023/06/22 08:10:11;;;;;;;20.20;11.88;;;;;;;29.77;100.00;96834.84;5034344;28;20116;-80
2023/06/22 08:12:36;;;;;;;9.07;8.23;;;;;;;29.66;100.00;97039.22;5052554;28;20032;-79
2023/06/22 08:15:02;;;;;;;9.20;8.40;;;;;;;30.31;100.00;97142.63;5053120;28;20025;-78
2023/06/22 08:17:51;;;;;;;9.82;8.82;;;;;;;30.82;100.00;97206.41;5051157;28;20020;-78
2023/06/22 08:20:17;;;;;;;11.25;8.13;;;;;;;30.53;100.00;97161.88;5052389;28;20022;-78
2023/06/22 08:22:43;;;;;;;8.73;7.85;;;;;;;30.42;100.00;97301.78;5051165;28;20028;-80
2023/06/22 08:25:10;;;;;;;7.82;7.13;;;;;;;30.33;100.00;97242.03;5052669;28;20072;-80
2023/06/22 08:27:36;;;;;;;8.55;7.55;;;;;;;30.88;100.00;97171.34;5052100;28;20043;-78
2023/06/22 08:30:02;;;;;;;10.73;8.93;;;;;;;31.50;100.00;97059.75;5052250;28;20025;-79
2023/06/22 08:32:28;;;;;;;10.60;9.50;;;;;;;31.12;100.00;97041.47;5052861;28;20035;-80
2023/06/22 08:34:54;;;;;;;10.50;8.50;;;;;;;31.00;100.00;96969.91;5051428;28;20036;-79
2023/06/22 08:37:20;;;;;;;9.93;8.85;;;;;;;31.85;100.00;97110.06;5051008;28;20033;-78
2023/06/22 08:39:47;;;;;;;9.38;8.45;;;;;;;31.80;100.00;97290.59;5051453;28;20033;-80
2023/06/22 08:42:12;;;;;;;10.02;8.25;;;;;;;31.68;100.00;97589.53;5052766;28;20087;-78
2023/06/22 08:44:37;;;;;;;9.00;8.20;;;;;;;31.65;100.00;97887.03;5050950;28;20120;-77
2023/06/22 08:47:03;;;;;;;9.70;8.80;;;;;;;31.04;100.00;98286.53;5034377;28;20491;-79
2023/06/22 08:49:34;;;;;;;10.05;8.45;;;;;;;31.15;100.00;98643.09;5051726;28;20509;-78
2023/06/22 08:51:59;;;;;;;11.27;9.00;;;;;;;31.12;100.00;98798.50;5051376;28;20025;-79
2023/06/22 08:54:25;;;;;;;8.98;8.07;;;;;;;31.58;100.00;99059.56;5051360;28;20372;-77
2023/06/22 08:56:50;;;;;;;9.05;8.20;;;;;;;31.36;100.00;99626.63;5051691;28;20059;-79
2023/06/22 08:59:15;;;;;;;9.25;8.35;;;;;;;31.46;100.00;100160.09;5051334;28;20032;-78
2023/06/22 09:01:48;;;;;;;9.60;8.57;;;;;;;31.57;100.00;100184.19;5034779;28;20035;-80
2023/06/22 09:04:13;;;;;;;8.75;7.90;;;;;;;30.72;100.00;100085.13;5050942;28;20025;-81
2023/06/22 09:06:44;;;;;;;9.75;8.30;;;;;;;31.26;100.00;100119.41;5034336;28;20445;-80
2023/06/22 09:09:10;;;;;;;10.80;8.23;;;;;;;31.31;100.00;99975.16;5051820;28;20372;-80
2023/06/22 09:11:35;;;;;;;12.80;8.77;;;;;;;31.32;100.00;99809.38;5051085;28;20072;-80
2023/06/22 09:14:01;;;;;;;9.35;8.55;;;;;;;31.42;100.00;99704.78;5051072;28;20037;-77
2023/06/22 09:16:26;;;;;;;9.10;7.90;;;;;;;32.07;100.00;99719.75;5050776;28;20400;-81
2023/06/22 09:18:52;;;;;;;8.90;8.00;;;;;;;31.52;100.00;99967.44;4698820;28;10000429;-83
2023/06/22 09:21:17;;;;;;;9.88;8.55;;;;;;;31.84;100.00;99998.72;5047835;28;20025;-80
2023/06/22 09:23:43;;;;;;;9.32;8.43;;;;;;;30.25;100.00;100105.22;5033019;28;20031;-80
2023/06/22 09:26:08;;;;;;;8.75;7.95;;;;;;;32.20;100.00;100151.59;5051159;28;20132;-80
2023/06/22 09:28:34;;;;;;;9.20;8.23;;;;;;;32.04;100.00;100223.59;5049254;28;20025;-82
2023/06/22 09:30:59;;;;;;;10.40;8.38;;;;;;;31.84;100.00;100338.16;5031606;28;20032;-81
2023/06/22 09:33:26;;;;;;;8.98;8.18;;;;;;;32.30;100.00;100326.78;5050645;28;20032;-80
2023/06/22 09:35:52;;;;;;;10.35;8.10;;;;;;;32.37;100.00;100416.41;5049325;28;20067;-75
2023/06/22 09:38:17;;;;;;;9.60;8.60;;;;;;;31.33;100.00;100406.97;5033418;28;20032;-80
2023/06/22 09:40:43;;;;;;;9.20;8.40;;;;;;;30.71;100.00;100403.94;5049621;28;20110;-76
2023/06/22 09:43:08;;;;;;;9.63;8.18;;;;;;;30.01;100.00;100378.06;5049139;28;20061;-79
2023/06/22 09:45:34;;;;;;;9.38;7.93;;;;;;;30.35;100.00;100476.00;5034819;28;20018;-76
2023/06/22 09:47:59;;;;;;;9.20;8.35;;;;;;;30.19;100.00;100490.84;5028951;28;20033;-76
2023/06/22 09:50:24;;;;;;;12.52;8.38;;;;;;;30.59;100.00;100465.63;5031350;28;20135;-76
2023/06/22 09:52:54;;;;;;;9.40;8.40;;;;;;;31.51;100.00;100532.06;5030809;28;20056;-75
2023/06/22 09:55:23;;;;;;;10.52;8.23;;;;;;;31.58;100.00;100584.81;5032372;28;20025;-80
2023/06/22 09:57:48;;;;;;;12.30;9.05;;;;;;;30.84;100.00;100563.75;5033651;28;20029;-84
2023/06/22 10:00:16;;;;;;;10.85;8.40;;;;;;;31.55;100.00;100569.38;5031709;28;20063;-83
2023/06/22 10:02:42;;;;;;;9.40;7.68;;;;;;;31.57;100.00;100580.56;5030734;28;20108;-86
2023/06/22 10:05:08;;;;;;;9.13;8.23;;;;;;;31.74;100.00;100610.31;5031433;28;20033;-88
2023/06/22 10:07:33;;;;;;;8.77;7.90;;;;;;;30.76;100.00;100650.38;5030776;28;20514;-84
2023/06/22 10:09:59;;;;;;;9.30;8.10;;;;;;;30.79;100.00;100674.53;5031632;28;20400;-86
2023/06/22 10:12:27;;;;;;;11.05;8.90;;;;;;;30.24;100.00;100641.63;5031113;28;20022;-83
2023/06/22 10:14:52;;;;;;;10.02;8.90;;;;;;;30.30;100.00;100690.94;5031233;28;20025;-83
2023/06/22 10:17:18;;;;;;;9.60;8.45;;;;;;;30.62;100.00;100693.78;5030985;28;20036;-82
2023/06/22 10:19:43;;;;;;;10.98;8.45;;;;;;;30.83;100.00;100695.22;5030001;28;20038;-81
2023/06/22 10:22:09;;;;;;;10.65;8.23;;;;;;;31.05;100.00;100697.34;5013759;28;20064;-81
2023/06/22 10:24:34;;;;;;;9.43;8.48;;;;;;;32.17;100.00;100626.63;5031156;28;20091;-82
2023/06/22 10:26:59;;;;;;;10.65;8.45;;;;;;;32.55;100.00;100693.63;5030265;28;20030;-82
2023/06/22 10:29:25;;;;;;;9.93;8.90;;;;;;;32.62;100.00;100630.56;5030839;28;20021;-80
2023/06/22 10:31:50;;;;;;;10.00;9.00;;;;;;;32.26;100.00;100636.19;5031627;28;20029;-80
2023/06/22 10:34:17;;;;;;;9.90;8.45;;;;;;;31.41;100.00;100648.91;5035775;28;20099;-80
2023/06/22 10:36:42;;;;;;;9.02;8.23;;;;;;;30.66;100.00;100662.78;5035375;28;20613;-80
2023/06/22 10:39:08;;;;;;;8.88;8.00;;;;;;;30.52;100.00;100718.50;5035500;28;20116;-80
2023/06/22 10:41:34;;;;;;;9.32;8.52;;;;;;;31.17;100.00;100665.38;5035754;28;20041;-81
2023/06/22 10:44:00;;;;;;;9.07;8.13;;;;;;;31.06;100.00;100704.28;5034227;28;20079;-80
2023/06/22 10:46:25;;;;;;;11.27;8.05;;;;;;;30.65;100.00;100646.19;5017283;28;20033;-80
2023/06/22 10:48:54;;;;;;;9.35;8.55;;;;;;;30.85;100.00;100646.00;5034038;28;20510;-79
2023/06/22 10:51:19;;;;;;;9.77;8.80;;;;;;;31.45;100.00;100681.78;5034403;28;20394;-80
2023/06/22 10:53:45;;;;;;;10.35;9.00;;;;;;;31.22;100.00;100641.25;5017096;28;20108;-80
2023/06/22 10:56:10;;;;;;;9.90;8.93;;;;;;;31.25;100.00;100615.47;5035717;28;20021;-80
2023/06/22 10:58:36;;;;;;;9.65;8.73;;;;;;;31.10;100.00;100624.13;5034695;28;20029;-80
2023/06/22 11:01:02;;;;;;;9.55;8.73;;;;;;;30.66;100.00;100631.28;5034187;28;20116;-78
2023/06/22 11:03:28;;;;;;;9.70;8.73;;;;;;;30.94;100.00;100643.25;5035584;28;20029;-79
2023/06/22 11:05:53;;;;;;;11.38;8.60;;;;;;;30.51;100.00;100683.53;5034421;28;20044;-81